Brush Fork, West Virginia
Current Conditions -  °F | °C
As of 3:58 AM on Thursday 23 Oct 2014 (Local Time) from KBLF Reporting Station
Overcast Overcast  
Wind Chill: 39°   Ceiling: 1500
Heat Index: 42°   Visibility: 10mi
Dew Point: 38°   Wind: 5mph
Humidity: 85%   Direction: 320°NW
Pressure: 30.14"   Gusts: NA
Location:  37.2994°N, 81.226°W
Report Text: KBLF 230758Z AUTO 32004KT 10SM SCT006 OVC015 06/03 A3014 RMK AO2 T00560033
Loading
Personal Weather Stations






























Interactive Weather Map
Tropical Storm Tracking
New forecast layout! Learn more

10-Day Weather Forecast

Advertisements
Track Severe Weather on mobile